createdAt,value
2023-08-22T00:01:26.446Z,64.47
2023-08-22T00:03:58.143Z,64.16
2023-08-22T00:06:29.631Z,65.12
2023-08-22T00:08:56.675Z,64.50
2023-08-22T00:11:23.501Z,64.67
2023-08-22T00:13:50.354Z,65.13
2023-08-22T00:16:17.262Z,65.92
2023-08-22T00:18:44.164Z,66.12
2023-08-22T00:21:11.054Z,67.17
2023-08-22T00:23:39.202Z,67.15
2023-08-22T00:26:06.293Z,66.94
2023-08-22T00:28:32.984Z,67.15
2023-08-22T00:31:00.349Z,67.69
2023-08-22T00:33:27.193Z,67.74
2023-08-22T00:35:54.191Z,68.37
2023-08-22T00:38:20.856Z,69.13
2023-08-22T00:40:48.248Z,69.55
2023-08-22T00:43:15.068Z,69.04
2023-08-22T00:45:44.350Z,68.99
2023-08-22T00:48:29.639Z,68.80
2023-08-22T00:50:56.428Z,69.25
2023-08-22T00:53:25.353Z,69.25
2023-08-22T00:55:52.394Z,69.43
2023-08-22T00:58:19.815Z,69.83
2023-08-22T01:00:48.027Z,70.00
2023-08-22T01:03:19.415Z,70.15
2023-08-22T01:05:54.225Z,70.22
2023-08-22T01:08:28.844Z,70.98
2023-08-22T01:11:00.176Z,70.45
2023-08-22T01:13:34.534Z,70.33
2023-08-22T01:16:02.395Z,69.69
2023-08-22T01:18:30.230Z,69.94
2023-08-22T01:21:06.143Z,70.01
2023-08-22T01:23:34.215Z,69.18
2023-08-22T01:26:05.798Z,68.12
2023-08-22T01:28:46.439Z,69.66
2023-08-22T01:31:30.545Z,67.96
2023-08-22T01:34:14.762Z,68.45
2023-08-22T01:36:43.719Z,67.83
2023-08-22T01:39:12.351Z,67.58
2023-08-22T01:41:39.533Z,67.36
2023-08-22T01:44:06.338Z,67.46
2023-08-22T01:46:33.304Z,67.35
2023-08-22T01:49:00.305Z,67.22
2023-08-22T01:51:27.169Z,67.24
2023-08-22T01:53:53.903Z,67.61
2023-08-22T01:56:20.574Z,67.60
2023-08-22T01:58:47.352Z,68.00
2023-08-22T02:01:14.872Z,67.79
2023-08-22T02:03:43.170Z,68.03
2023-08-22T02:06:11.081Z,68.06
2023-08-22T02:08:39.585Z,68.11
2023-08-22T02:11:06.776Z,68.12
2023-08-22T02:13:33.739Z,68.11
2023-08-22T02:16:02.017Z,68.03
2023-08-22T02:18:29.028Z,68.33
2023-08-22T02:20:57.395Z,69.18
2023-08-22T02:23:24.641Z,70.15
2023-08-22T02:25:51.293Z,70.26
2023-08-22T02:28:18.201Z,70.27
2023-08-22T02:30:44.895Z,70.45
2023-08-22T02:33:11.747Z,70.56
2023-08-22T02:35:38.901Z,70.76
2023-08-22T02:38:06.073Z,71.29
2023-08-22T02:40:32.827Z,71.41
2023-08-22T02:42:59.886Z,71.66
2023-08-22T02:45:27.198Z,71.82
2023-08-22T02:47:54.711Z,72.23
2023-08-22T02:50:24.857Z,71.87
2023-08-22T02:52:52.446Z,72.17
2023-08-22T02:55:19.354Z,72.45
2023-08-22T02:57:46.397Z,72.09
2023-08-22T03:00:14.349Z,72.23
2023-08-22T03:02:41.355Z,72.04
2023-08-22T03:05:12.989Z,72.08
2023-08-22T03:07:40.499Z,71.37
2023-08-22T03:10:11.501Z,70.89
2023-08-22T03:12:38.334Z,71.23
2023-08-22T03:15:05.838Z,70.91
2023-08-22T03:17:33.209Z,71.15
2023-08-22T03:20:00.925Z,71.24
2023-08-22T03:22:27.905Z,71.82
2023-08-22T03:24:54.804Z,72.24
2023-08-22T03:27:21.936Z,72.17
2023-08-22T03:29:48.576Z,72.03
2023-08-22T03:32:15.409Z,72.12
2023-08-22T03:34:43.330Z,72.14
2023-08-22T03:37:09.969Z,71.91
2023-08-22T03:39:36.797Z,71.71
2023-08-22T03:42:03.536Z,71.87
2023-08-22T03:44:31.699Z,71.14
2023-08-22T03:46:58.697Z,70.19
2023-08-22T03:49:25.529Z,70.17
2023-08-22T03:51:52.368Z,70.17
2023-08-22T03:54:19.423Z,70.32
2023-08-22T03:56:46.203Z,70.66
2023-08-22T03:59:15.967Z,70.98
2023-08-22T04:01:42.812Z,71.30
2023-08-22T04:04:09.829Z,70.47
2023-08-22T04:06:36.568Z,70.77
2023-08-22T04:09:03.855Z,70.55
2023-08-22T04:11:30.664Z,70.71
2023-08-22T04:13:57.558Z,70.75
2023-08-22T04:16:24.543Z,70.91
2023-08-22T04:18:52.443Z,70.96
2023-08-22T04:21:19.286Z,70.89
2023-08-22T04:23:46.039Z,70.63
2023-08-22T04:26:12.743Z,70.80
2023-08-22T04:28:40.289Z,70.94
2023-08-22T04:31:07.666Z,70.93
2023-08-22T04:33:34.516Z,70.75
2023-08-22T04:36:01.358Z,71.07
2023-08-22T04:38:28.084Z,71.18
2023-08-22T04:40:55.164Z,70.85
2023-08-22T04:43:22.266Z,70.92
2023-08-22T04:45:52.747Z,71.41
2023-08-22T04:48:22.325Z,71.30
2023-08-22T04:50:49.868Z,71.48
2023-08-22T04:53:16.764Z,72.20
2023-08-22T04:55:46.640Z,73.40
2023-08-22T04:58:13.940Z,72.30
2023-08-22T05:00:40.836Z,72.86
2023-08-22T05:03:07.833Z,72.71
2023-08-22T05:05:34.756Z,72.65
2023-08-22T05:08:11.383Z,73.31
2023-08-22T05:10:38.364Z,72.68
2023-08-22T05:13:05.937Z,72.32
2023-08-22T05:15:32.806Z,72.24
2023-08-22T05:17:59.752Z,72.66
2023-08-22T05:20:27.703Z,73.18
2023-08-22T05:22:54.840Z,73.19
2023-08-22T05:25:21.888Z,72.90
2023-08-22T05:27:49.511Z,72.72
2023-08-22T05:30:16.286Z,72.80
2023-08-22T05:32:43.659Z,73.50
2023-08-22T05:35:12.095Z,73.26
2023-08-22T05:37:39.429Z,73.66
2023-08-22T05:40:12.276Z,73.68
2023-08-22T05:42:41.155Z,74.14
2023-08-22T05:45:09.092Z,74.24
2023-08-22T05:47:36.157Z,74.48
2023-08-22T05:50:06.393Z,75.18
2023-08-22T05:52:33.166Z,74.92
2023-08-22T05:54:59.876Z,74.54
2023-08-22T05:57:28.973Z,74.36
2023-08-22T05:59:56.097Z,74.46
2023-08-22T06:02:22.831Z,74.82
2023-08-22T06:04:49.950Z,75.10
2023-08-22T06:07:17.185Z,74.92
2023-08-22T06:09:44.966Z,75.13
2023-08-22T06:12:16.408Z,75.10
2023-08-22T06:14:43.394Z,75.10
2023-08-22T06:17:10.804Z,75.03
2023-08-22T06:19:43.029Z,75.11
2023-08-22T06:22:10.231Z,74.94
2023-08-22T06:24:37.429Z,74.66
2023-08-22T06:27:04.305Z,74.83
2023-08-22T06:29:33.268Z,74.70
2023-08-22T06:32:02.774Z,75.10
2023-08-22T06:34:34.364Z,75.68
2023-08-22T06:37:01.084Z,76.27
2023-08-22T06:39:29.513Z,76.87
2023-08-22T06:41:56.420Z,77.46
2023-08-22T06:44:23.313Z,77.71
2023-08-22T06:46:50.290Z,78.20
2023-08-22T06:49:17.422Z,78.67
2023-08-22T06:51:44.206Z,78.34
2023-08-22T06:54:13.921Z,78.68
2023-08-22T06:56:43.521Z,78.41
2023-08-22T06:59:49.913Z,77.80
2023-08-22T07:02:20.662Z,77.16
2023-08-22T07:04:58.946Z,75.91
2023-08-22T07:07:26.600Z,75.91
2023-08-22T07:09:53.391Z,75.70
2023-08-22T07:12:20.305Z,75.13
2023-08-22T07:14:54.279Z,74.01
2023-08-22T07:17:21.098Z,74.52
2023-08-22T07:19:47.826Z,74.20
2023-08-22T07:22:14.579Z,74.14
2023-08-22T07:24:44.629Z,72.94
2023-08-22T07:27:12.730Z,72.60
2023-08-22T07:29:39.627Z,72.42
2023-08-22T07:32:07.727Z,72.31
2023-08-22T07:34:34.708Z,70.93
2023-08-22T07:37:01.842Z,71.49
2023-08-22T07:39:29.409Z,70.20
2023-08-22T07:41:57.151Z,70.07
2023-08-22T07:44:25.622Z,69.44
2023-08-22T07:46:52.584Z,69.24
2023-08-22T07:49:22.181Z,67.83
2023-08-22T07:51:51.751Z,68.36
2023-08-22T07:54:19.158Z,68.06
2023-08-22T08:00:00.214Z,67.98
2023-08-22T08:02:41.783Z,67.36
2023-08-22T08:05:11.967Z,66.66
2023-08-22T08:07:39.954Z,66.82
2023-08-22T08:10:07.513Z,66.86
2023-08-22T08:13:12.529Z,67.07
2023-08-22T08:16:07.248Z,66.95
2023-08-22T08:18:35.213Z,66.10
2023-08-22T08:21:02.120Z,66.17
2023-08-22T08:23:31.483Z,65.90
2023-08-22T08:25:58.081Z,65.27
2023-08-22T08:28:37.141Z,64.91
2023-08-22T08:31:09.912Z,64.37
2023-08-22T08:33:36.996Z,64.50
2023-08-22T08:36:06.245Z,64.10
2023-08-22T08:38:48.158Z,63.52
2023-08-22T08:41:23.309Z,64.26
2023-08-22T08:43:50.932Z,63.53
2023-08-22T08:46:17.900Z,63.00
2023-08-22T08:48:46.800Z,62.07
2023-08-22T08:51:15.540Z,61.45
2023-08-22T08:53:42.949Z,61.20
2023-08-22T08:56:13.222Z,60.59
2023-08-22T08:58:40.340Z,59.96
2023-08-22T09:01:12.258Z,59.59
2023-08-22T09:03:39.609Z,59.67
2023-08-22T09:06:06.238Z,59.90
2023-08-22T09:08:33.275Z,59.15
2023-08-22T09:11:00.062Z,59.20
2023-08-22T09:13:38.829Z,58.65
2023-08-22T09:16:17.187Z,58.64
2023-08-22T09:18:44.400Z,58.01
2023-08-22T09:21:12.197Z,57.46
2023-08-22T09:23:41.781Z,56.56
2023-08-22T09:26:09.306Z,56.95
2023-08-22T09:28:41.049Z,56.56
2023-08-22T09:31:08.334Z,56.54
2023-08-22T09:33:49.398Z,54.89
2023-08-22T09:36:21.438Z,54.92
2023-08-22T09:38:55.908Z,55.84
2023-08-22T09:41:28.054Z,55.42
2023-08-22T09:43:58.275Z,55.13
2023-08-22T09:46:26.027Z,54.98
2023-08-22T09:48:54.019Z,54.35
2023-08-22T09:51:24.882Z,54.53
2023-08-22T09:54:01.279Z,54.19
2023-08-22T09:56:28.237Z,54.58
2023-08-22T09:58:55.284Z,54.35
2023-08-22T10:01:26.597Z,53.85
2023-08-22T10:03:55.889Z,52.90
2023-08-22T10:06:42.552Z,52.11
2023-08-22T10:09:13.295Z,52.68
2023-08-22T10:11:43.363Z,51.69
2023-08-22T10:14:19.975Z,51.84
2023-08-22T10:16:47.238Z,52.11
2023-08-22T10:19:15.518Z,51.44
2023-08-22T10:21:45.066Z,51.22
2023-08-22T10:24:27.441Z,51.61
2023-08-22T10:27:12.572Z,50.32
2023-08-22T10:29:48.725Z,50.66
2023-08-22T10:32:15.436Z,50.64
2023-08-22T10:34:42.017Z,51.02
2023-08-22T10:37:20.957Z,50.78
2023-08-22T10:39:53.901Z,50.65
2023-08-22T10:42:23.584Z,50.46
2023-08-22T10:44:52.094Z,50.43
2023-08-22T10:47:21.071Z,50.36
2023-08-22T10:52:39.883Z,51.18
2023-08-22T10:55:13.339Z,51.36
2023-08-22T10:57:43.219Z,50.98
2023-08-22T11:00:23.339Z,51.47
2023-08-22T11:02:52.772Z,51.56
2023-08-22T11:05:20.122Z,51.51
2023-08-22T11:07:50.054Z,52.04
2023-08-22T11:10:19.465Z,51.80
2023-08-22T11:12:47.450Z,51.82
2023-08-22T11:15:15.909Z,51.79
2023-08-22T11:17:44.727Z,51.70
2023-08-22T11:20:17.786Z,51.61
2023-08-22T11:22:46.014Z,51.25
2023-08-22T11:25:14.033Z,51.65
2023-08-22T11:27:41.843Z,51.04
2023-08-22T11:30:10.378Z,51.22
2023-08-22T11:32:40.266Z,51.06
2023-08-22T11:35:08.811Z,51.23
2023-08-22T11:37:41.953Z,50.89
2023-08-22T11:40:16.491Z,50.63
2023-08-22T11:42:43.942Z,51.05
2023-08-22T11:45:18.955Z,50.49
2023-08-22T11:47:50.846Z,50.70
2023-08-22T11:50:22.553Z,49.89
2023-08-22T11:52:54.830Z,50.37
2023-08-22T11:55:29.440Z,49.62
2023-08-22T11:57:58.112Z,49.91
2023-08-22T12:00:32.572Z,49.95
2023-08-22T12:03:01.362Z,49.76
2023-08-22T12:05:36.553Z,48.97
2023-08-22T12:08:12.615Z,49.33
2023-08-22T12:10:47.942Z,48.86
2023-08-22T12:13:17.633Z,49.41
2023-08-22T12:15:45.753Z,48.98
2023-08-22T12:18:13.464Z,49.22
2023-08-22T12:20:43.027Z,48.49
2023-08-22T12:23:14.530Z,49.28
2023-08-22T12:25:43.559Z,49.08
2023-08-22T12:28:11.573Z,48.96
2023-08-22T12:30:40.048Z,49.10
2023-08-22T12:33:10.435Z,49.36
2023-08-22T12:35:46.372Z,49.31
2023-08-22T12:38:13.067Z,49.02
2023-08-22T12:40:40.999Z,49.56
2023-08-22T12:43:07.570Z,49.44
2023-08-22T12:45:34.225Z,49.47
2023-08-22T12:48:01.050Z,49.44
2023-08-22T12:50:27.795Z,49.01
2023-08-22T12:52:54.546Z,49.26
2023-08-22T12:55:22.388Z,49.44
2023-08-22T12:57:52.213Z,49.12
2023-08-22T13:00:21.327Z,49.55
2023-08-22T13:02:48.397Z,49.13
2023-08-22T13:05:15.606Z,49.10
2023-08-22T13:07:45.976Z,49.12
2023-08-22T13:10:15.639Z,48.84
2023-08-22T13:12:42.437Z,49.05
2023-08-22T13:15:11.765Z,49.43
2023-08-22T13:17:38.634Z,48.54
2023-08-22T13:20:06.525Z,48.70
2023-08-22T13:22:33.264Z,48.64
2023-08-22T13:24:59.987Z,48.40
2023-08-22T13:27:26.888Z,48.11
2023-08-22T13:29:53.500Z,48.31
2023-08-22T13:32:20.224Z,48.67
2023-08-22T13:34:46.972Z,48.45
2023-08-22T13:37:13.847Z,48.26
2023-08-22T13:39:40.764Z,47.52
2023-08-22T13:42:07.968Z,47.89
2023-08-22T13:44:36.511Z,47.79
2023-08-22T13:47:03.264Z,47.75
2023-08-22T13:49:29.919Z,47.59
2023-08-22T13:51:58.217Z,47.78
2023-08-22T13:54:25.401Z,47.12
2023-08-22T13:56:57.206Z,47.25
2023-08-22T13:59:24.970Z,47.39
2023-08-22T14:01:51.668Z,47.71
2023-08-22T14:04:20.896Z,47.80
2023-08-22T14:06:49.832Z,47.21
2023-08-22T14:09:26.204Z,47.47
2023-08-22T14:11:54.157Z,47.57
2023-08-22T14:14:21.063Z,47.65
2023-08-22T14:16:48.375Z,48.34
2023-08-22T14:19:15.086Z,48.26
2023-08-22T14:21:47.667Z,48.50
2023-08-22T14:24:15.315Z,48.25
2023-08-22T14:26:42.152Z,47.70
2023-08-22T14:29:08.829Z,47.82
2023-08-22T14:31:38.615Z,47.83
2023-08-22T14:34:05.365Z,47.73
2023-08-22T14:36:32.085Z,47.80
2023-08-22T14:38:59.004Z,47.75
2023-08-22T14:41:25.885Z,47.65
2023-08-22T14:43:54.209Z,48.16
2023-08-22T14:46:21.193Z,47.92
2023-08-22T14:48:48.197Z,47.70
2023-08-22T14:51:19.312Z,47.68
2023-08-22T14:53:46.106Z,47.52
2023-08-22T14:56:13.048Z,47.03
2023-08-22T14:58:50.818Z,47.15
2023-08-22T15:01:20.317Z,47.59
2023-08-22T15:03:48.063Z,47.27
2023-08-22T15:06:15.022Z,47.36
2023-08-22T15:08:42.146Z,47.42
2023-08-22T15:11:09.661Z,46.91
2023-08-22T15:13:36.503Z,46.75
2023-08-22T15:16:03.353Z,47.06
2023-08-22T15:18:30.541Z,46.47
2023-08-22T15:21:00.568Z,46.47
2023-08-22T15:23:29.672Z,46.26
2023-08-22T15:25:57.552Z,45.58
2023-08-22T15:28:25.509Z,46.23
2023-08-22T15:30:59.229Z,46.18
2023-08-22T15:33:29.611Z,46.20
2023-08-22T15:36:00.342Z,46.79
2023-08-22T15:38:35.464Z,46.87
2023-08-22T15:41:03.197Z,47.02
2023-08-22T15:43:40.388Z,46.63
2023-08-22T15:46:07.162Z,46.58
2023-08-22T15:48:33.940Z,46.60
2023-08-22T15:51:00.841Z,46.54
2023-08-22T15:53:27.801Z,46.72
2023-08-22T15:55:54.879Z,46.59
2023-08-22T15:58:21.652Z,46.92
2023-08-22T16:00:48.585Z,46.79
2023-08-22T16:03:15.999Z,47.00
2023-08-22T16:05:42.822Z,46.89
2023-08-22T16:08:09.720Z,47.18
2023-08-22T16:10:36.816Z,46.73
2023-08-22T16:13:03.671Z,47.32
2023-08-22T16:15:31.787Z,47.27
2023-08-22T16:17:58.879Z,47.35
2023-08-22T16:20:26.346Z,48.01
2023-08-22T16:22:53.139Z,48.13
2023-08-22T16:25:19.806Z,48.01
2023-08-22T16:27:46.846Z,48.53
2023-08-22T16:30:14.397Z,48.13
2023-08-22T16:32:41.320Z,48.21
2023-08-22T16:35:08.418Z,48.23
2023-08-22T16:37:35.203Z,48.33
2023-08-22T16:40:01.925Z,48.40
2023-08-22T16:42:28.891Z,48.43
2023-08-22T16:44:55.572Z,48.27
2023-08-22T16:47:22.205Z,48.46
2023-08-22T16:49:49.020Z,48.11
2023-08-22T16:52:15.682Z,48.43
2023-08-22T16:54:42.627Z,48.24
2023-08-22T16:57:09.758Z,48.83
2023-08-22T16:59:36.936Z,48.97
2023-08-22T17:02:04.230Z,49.35
2023-08-22T17:04:30.877Z,49.46
2023-08-22T17:06:57.738Z,49.20
2023-08-22T17:09:24.479Z,49.25
2023-08-22T17:11:51.197Z,49.62
2023-08-22T17:14:18.521Z,49.31
2023-08-22T17:16:45.288Z,49.76
2023-08-22T17:19:13.336Z,49.54
2023-08-22T17:21:40.739Z,49.23
2023-08-22T17:24:07.592Z,48.64
2023-08-22T17:26:34.448Z,48.45
2023-08-22T17:29:04.167Z,49.14
2023-08-22T17:31:31.672Z,49.23
2023-08-22T17:33:58.293Z,48.79
2023-08-22T17:36:24.964Z,48.69
2023-08-22T17:38:52.206Z,49.12
2023-08-22T17:41:19.162Z,48.86
2023-08-22T17:43:45.855Z,49.11
2023-08-22T17:46:14.282Z,49.51
2023-08-22T17:48:41.200Z,49.88
2023-08-22T17:51:07.880Z,49.85
2023-08-22T17:53:34.634Z,50.13
2023-08-22T17:56:01.300Z,50.27
2023-08-22T17:58:28.080Z,50.48
2023-08-22T18:00:54.719Z,50.88
2023-08-22T18:03:21.856Z,50.91
2023-08-22T18:05:57.746Z,51.48
2023-08-22T18:08:25.716Z,51.10
2023-08-22T18:10:53.902Z,51.28
2023-08-22T18:13:21.325Z,51.78
2023-08-22T18:18:31.241Z,52.29
2023-08-22T18:21:05.873Z,52.39
2023-08-22T18:23:32.959Z,52.71
2023-08-22T18:26:03.572Z,52.76
2023-08-22T18:28:32.802Z,53.17
2023-08-22T18:31:01.911Z,53.59
2023-08-22T18:33:29.137Z,53.88
2023-08-22T18:35:56.415Z,53.84
2023-08-22T18:38:23.180Z,54.03
2023-08-22T18:40:56.012Z,54.25
2023-08-22T18:43:22.795Z,54.24
2023-08-22T18:45:50.273Z,54.85
2023-08-22T18:48:18.412Z,54.90
2023-08-22T18:50:46.942Z,55.01
2023-08-22T18:53:15.560Z,55.33
2023-08-22T18:55:42.299Z,55.44
2023-08-22T18:58:08.955Z,55.36
2023-08-22T19:00:35.792Z,55.88
2023-08-22T19:03:02.670Z,55.62
2023-08-22T19:05:29.501Z,55.84
2023-08-22T19:07:56.236Z,56.14
2023-08-22T19:10:23.028Z,56.58
2023-08-22T19:12:49.707Z,56.84
2023-08-22T19:15:16.544Z,56.80
2023-08-22T19:17:43.916Z,56.96
2023-08-22T19:20:11.644Z,56.97
2023-08-22T19:22:41.313Z,57.64
2023-08-22T19:25:08.520Z,57.89
2023-08-22T19:27:37.727Z,58.04
2023-08-22T19:30:04.988Z,58.19
2023-08-22T19:32:48.247Z,58.00
2023-08-22T19:35:18.626Z,58.25
2023-08-22T19:37:45.940Z,58.35
2023-08-22T19:40:14.316Z,58.10
2023-08-22T19:42:41.088Z,58.43
2023-08-22T19:45:09.099Z,58.60
2023-08-22T19:47:38.493Z,58.40
2023-08-22T19:50:05.827Z,58.78
2023-08-22T19:52:32.823Z,58.68
2023-08-22T19:55:00.275Z,58.96
2023-08-22T19:57:30.005Z,59.12
2023-08-22T19:59:57.919Z,59.57
2023-08-22T20:02:25.325Z,59.21
2023-08-22T20:04:52.359Z,59.03
2023-08-22T20:07:19.093Z,59.17
2023-08-22T20:09:45.920Z,58.69
2023-08-22T20:12:12.664Z,58.77
2023-08-22T20:14:41.077Z,58.67
2023-08-22T20:17:08.801Z,58.82
2023-08-22T20:19:35.498Z,59.02
2023-08-22T20:22:02.498Z,58.34
2023-08-22T20:24:29.192Z,58.59
2023-08-22T20:27:02.940Z,60.55
2023-08-22T20:29:30.327Z,59.10
2023-08-22T20:31:57.687Z,59.20
2023-08-22T20:34:27.729Z,59.87
2023-08-22T20:36:54.257Z,59.78
2023-08-22T20:39:21.311Z,60.33
2023-08-22T20:41:48.396Z,60.59
2023-08-22T20:44:15.195Z,60.98
2023-08-22T20:46:42.101Z,61.20
2023-08-22T20:49:08.826Z,61.08
2023-08-22T20:51:36.474Z,61.09
2023-08-22T20:54:03.186Z,61.06
2023-08-22T20:56:29.940Z,61.47
2023-08-22T20:58:57.791Z,61.95
2023-08-22T21:01:24.728Z,61.60
2023-08-22T21:03:51.540Z,61.61
2023-08-22T21:06:18.314Z,61.86
2023-08-22T21:08:45.966Z,61.88
2023-08-22T21:11:12.565Z,61.68
2023-08-22T21:13:39.547Z,61.34
2023-08-22T21:16:06.420Z,61.45
2023-08-22T21:18:34.099Z,61.89
2023-08-22T21:21:01.365Z,62.55
2023-08-22T21:23:28.437Z,62.94
2023-08-22T21:25:58.548Z,63.40
2023-08-22T21:28:25.236Z,62.88
2023-08-22T21:30:52.613Z,62.75
2023-08-22T21:33:19.699Z,62.27
2023-08-22T21:35:47.705Z,63.12
2023-08-22T21:38:14.441Z,63.68
2023-08-22T21:40:48.057Z,65.67
2023-08-22T21:43:15.451Z,64.22
2023-08-22T21:45:43.232Z,64.28
2023-08-22T21:48:10.180Z,64.59
2023-08-22T21:50:37.150Z,64.66
2023-08-22T21:53:03.798Z,64.83
2023-08-22T21:55:30.579Z,65.20
2023-08-22T21:57:57.430Z,65.30
2023-08-22T22:00:24.199Z,65.69
2023-08-22T22:02:51.489Z,66.01
2023-08-22T22:05:18.541Z,66.10
2023-08-22T22:07:46.730Z,66.63
2023-08-22T22:10:13.616Z,66.33
2023-08-22T22:12:40.208Z,66.00
2023-08-22T22:15:07.255Z,66.17
2023-08-22T22:17:33.796Z,66.51
2023-08-22T22:20:00.567Z,66.86
2023-08-22T22:22:27.390Z,67.04
2023-08-22T22:24:54.022Z,66.94
2023-08-22T22:27:20.705Z,67.00
2023-08-22T22:29:47.506Z,66.83
2023-08-22T22:32:14.516Z,66.24
2023-08-22T22:34:41.125Z,66.33
2023-08-22T22:37:09.158Z,66.25
2023-08-22T22:39:35.783Z,67.10
2023-08-22T22:42:02.475Z,67.70
2023-08-22T22:44:29.357Z,67.75
2023-08-22T22:46:56.353Z,67.90
2023-08-22T22:49:23.039Z,68.03
2023-08-22T22:51:49.639Z,67.86
2023-08-22T22:54:16.444Z,67.87
2023-08-22T22:56:43.231Z,67.78
2023-08-22T22:59:09.848Z,67.77
2023-08-22T23:01:36.545Z,67.62
2023-08-22T23:04:03.916Z,67.52
2023-08-22T23:06:30.581Z,68.18
2023-08-22T23:08:57.321Z,68.50
2023-08-22T23:11:29.152Z,68.87
2023-08-22T23:14:10.468Z,68.97
2023-08-22T23:16:37.210Z,68.94
2023-08-22T23:19:04.003Z,68.85
2023-08-22T23:21:30.703Z,68.39
2023-08-22T23:23:57.526Z,68.61
2023-08-22T23:26:24.395Z,67.94
2023-08-22T23:28:51.013Z,67.80
2023-08-22T23:31:17.727Z,67.58
2023-08-22T23:33:44.262Z,67.56
2023-08-22T23:36:11.198Z,67.25
2023-08-22T23:38:38.353Z,66.61
2023-08-22T23:41:04.963Z,67.44
2023-08-22T23:43:31.620Z,67.34
2023-08-22T23:45:58.362Z,67.54
2023-08-22T23:48:24.980Z,67.31
2023-08-22T23:50:52.517Z,67.98
2023-08-22T23:53:21.880Z,67.72
2023-08-22T23:55:48.665Z,67.57
2023-08-22T23:58:15.330Z,67.07
